sensor_id;sensor_type;location;lat;lon;timestamp;P1;durP1;ratioP1;P2;durP2;ratioP2
75537;SDS011;64121;48.666;8.114;2022-12-07T00:00:26;17.00;;;10.15;;
75537;SDS011;64121;48.666;8.114;2022-12-07T00:02:51;16.85;;;10.75;;
75537;SDS011;64121;48.666;8.114;2022-12-07T00:05:16;17.27;;;10.30;;
75537;SDS011;64121;48.666;8.114;2022-12-07T00:07:41;16.25;;;10.40;;
75537;SDS011;64121;48.666;8.114;2022-12-07T00:10:07;17.23;;;10.00;;
75537;SDS011;64121;48.666;8.114;2022-12-07T00:12:32;18.08;;;10.95;;
75537;SDS011;64121;48.666;8.114;2022-12-07T00:14:58;16.27;;;10.30;;
75537;SDS011;64121;48.666;8.114;2022-12-07T00:17:24;17.77;;;10.80;;
75537;SDS011;64121;48.666;8.114;2022-12-07T00:19:50;15.43;;;10.50;;
75537;SDS011;64121;48.666;8.114;2022-12-07T00:22:15;23.40;;;11.43;;
75537;SDS011;64121;48.666;8.114;2022-12-07T00:24:40;17.02;;;10.38;;
75537;SDS011;64121;48.666;8.114;2022-12-07T00:27:05;15.57;;;10.02;;
75537;SDS011;64121;48.666;8.114;2022-12-07T00:29:31;18.17;;;10.80;;
75537;SDS011;64121;48.666;8.114;2022-12-07T00:31:56;16.30;;;10.85;;
75537;SDS011;64121;48.666;8.114;2022-12-07T00:34:23;15.38;;;10.35;;
75537;SDS011;64121;48.666;8.114;2022-12-07T00:36:48;17.52;;;10.32;;
75537;SDS011;64121;48.666;8.114;2022-12-07T00:39:14;19.05;;;11.02;;
75537;SDS011;64121;48.666;8.114;2022-12-07T00:41:40;17.55;;;10.68;;
75537;SDS011;64121;48.666;8.114;2022-12-07T00:44:06;17.08;;;11.15;;
75537;SDS011;64121;48.666;8.114;2022-12-07T00:46:31;16.45;;;10.63;;
75537;SDS011;64121;48.666;8.114;2022-12-07T00:48:56;16.48;;;9.55;;
75537;SDS011;64121;48.666;8.114;2022-12-07T00:51:23;15.25;;;10.30;;
75537;SDS011;64121;48.666;8.114;2022-12-07T00:53:50;18.23;;;11.20;;
75537;SDS011;64121;48.666;8.114;2022-12-07T00:56:17;19.10;;;10.43;;
75537;SDS011;64121;48.666;8.114;2022-12-07T00:58:44;18.25;;;10.15;;
75537;SDS011;64121;48.666;8.114;2022-12-07T01:01:15;16.90;;;10.18;;
75537;SDS011;64121;48.666;8.114;2022-12-07T01:03:40;15.00;;;9.55;;
75537;SDS011;64121;48.666;8.114;2022-12-07T01:06:05;15.27;;;10.00;;
75537;SDS011;64121;48.666;8.114;2022-12-07T01:08:32;17.30;;;9.63;;
75537;SDS011;64121;48.666;8.114;2022-12-07T01:10:58;15.15;;;9.70;;
75537;SDS011;64121;48.666;8.114;2022-12-07T01:13:24;17.55;;;9.98;;
75537;SDS011;64121;48.666;8.114;2022-12-07T01:15:50;15.20;;;9.90;;
75537;SDS011;64121;48.666;8.114;2022-12-07T01:18:15;18.23;;;10.93;;
75537;SDS011;64121;48.666;8.114;2022-12-07T01:20:40;16.65;;;9.68;;
75537;SDS011;64121;48.666;8.114;2022-12-07T01:23:06;14.70;;;10.00;;
75537;SDS011;64121;48.666;8.114;2022-12-07T01:25:32;15.57;;;10.00;;
75537;SDS011;64121;48.666;8.114;2022-12-07T01:27:58;16.70;;;10.57;;
75537;SDS011;64121;48.666;8.114;2022-12-07T01:30:23;17.08;;;10.65;;
75537;SDS011;64121;48.666;8.114;2022-12-07T01:32:49;16.65;;;10.57;;
75537;SDS011;64121;48.666;8.114;2022-12-07T01:35:14;15.02;;;10.05;;
75537;SDS011;64121;48.666;8.114;2022-12-07T01:37:39;16.33;;;9.68;;
75537;SDS011;64121;48.666;8.114;2022-12-07T01:40:06;16.52;;;10.02;;
75537;SDS011;64121;48.666;8.114;2022-12-07T01:42:34;14.88;;;8.90;;
75537;SDS011;64121;48.666;8.114;2022-12-07T01:48:07;15.70;;;10.07;;
75537;SDS011;64121;48.666;8.114;2022-12-07T01:50:36;16.80;;;10.23;;
75537;SDS011;64121;48.666;8.114;2022-12-07T01:53:05;16.00;;;9.50;;
75537;SDS011;64121;48.666;8.114;2022-12-07T01:55:34;17.00;;;9.43;;
75537;SDS011;64121;48.666;8.114;2022-12-07T01:58:03;17.88;;;9.55;;
75537;SDS011;64121;48.666;8.114;2022-12-07T02:00:29;16.15;;;9.95;;
75537;SDS011;64121;48.666;8.114;2022-12-07T02:02:55;16.98;;;10.10;;
75537;SDS011;64121;48.666;8.114;2022-12-07T02:05:25;14.43;;;9.50;;
75537;SDS011;64121;48.666;8.114;2022-12-07T02:07:52;15.93;;;8.88;;
75537;SDS011;64121;48.666;8.114;2022-12-07T02:10:20;13.60;;;9.52;;
75537;SDS011;64121;48.666;8.114;2022-12-07T02:12:48;15.88;;;9.73;;
75537;SDS011;64121;48.666;8.114;2022-12-07T02:15:17;14.48;;;9.88;;
75537;SDS011;64121;48.666;8.114;2022-12-07T02:17:47;16.20;;;9.95;;
75537;SDS011;64121;48.666;8.114;2022-12-07T02:20:19;15.02;;;10.20;;
75537;SDS011;64121;48.666;8.114;2022-12-07T02:23:01;15.52;;;9.98;;
75537;SDS011;64121;48.666;8.114;2022-12-07T02:25:43;14.45;;;8.85;;
75537;SDS011;64121;48.666;8.114;2022-12-07T02:28:27;15.30;;;9.20;;
75537;SDS011;64121;48.666;8.114;2022-12-07T02:30:58;15.55;;;9.43;;
75537;SDS011;64121;48.666;8.114;2022-12-07T02:33:31;16.98;;;9.45;;
75537;SDS011;64121;48.666;8.114;2022-12-07T02:36:01;15.45;;;8.75;;
75537;SDS011;64121;48.666;8.114;2022-12-07T02:38:31;14.63;;;8.88;;
75537;SDS011;64121;48.666;8.114;2022-12-07T02:41:03;15.57;;;9.43;;
75537;SDS011;64121;48.666;8.114;2022-12-07T02:43:32;12.77;;;9.48;;
75537;SDS011;64121;48.666;8.114;2022-12-07T02:46:03;15.82;;;10.00;;
75537;SDS011;64121;48.666;8.114;2022-12-07T02:48:32;14.25;;;9.45;;
75537;SDS011;64121;48.666;8.114;2022-12-07T02:50:58;15.73;;;9.52;;
75537;SDS011;64121;48.666;8.114;2022-12-07T02:53:27;17.08;;;9.25;;
75537;SDS011;64121;48.666;8.114;2022-12-07T02:55:53;15.32;;;8.60;;
75537;SDS011;64121;48.666;8.114;2022-12-07T02:58:22;13.75;;;9.68;;
75537;SDS011;64121;48.666;8.114;2022-12-07T03:01:04;15.13;;;9.05;;
75537;SDS011;64121;48.666;8.114;2022-12-07T03:03:35;17.38;;;8.95;;
75537;SDS011;64121;48.666;8.114;2022-12-07T03:06:05;15.27;;;9.48;;
75537;SDS011;64121;48.666;8.114;2022-12-07T03:08:38;14.35;;;9.10;;
75537;SDS011;64121;48.666;8.114;2022-12-07T03:11:09;12.50;;;7.82;;
75537;SDS011;64121;48.666;8.114;2022-12-07T03:13:39;13.93;;;9.27;;
75537;SDS011;64121;48.666;8.114;2022-12-07T03:16:12;15.45;;;9.75;;
75537;SDS011;64121;48.666;8.114;2022-12-07T03:18:40;15.25;;;8.88;;
75537;SDS011;64121;48.666;8.114;2022-12-07T03:21:11;14.68;;;8.95;;
75537;SDS011;64121;48.666;8.114;2022-12-07T03:23:40;15.02;;;8.70;;
75537;SDS011;64121;48.666;8.114;2022-12-07T03:26:10;13.43;;;8.45;;
75537;SDS011;64121;48.666;8.114;2022-12-07T03:28:40;17.05;;;10.02;;
75537;SDS011;64121;48.666;8.114;2022-12-07T03:31:10;13.85;;;8.48;;
75537;SDS011;64121;48.666;8.114;2022-12-07T03:33:42;13.65;;;8.75;;
75537;SDS011;64121;48.666;8.114;2022-12-07T03:36:11;13.70;;;8.32;;
75537;SDS011;64121;48.666;8.114;2022-12-07T03:38:44;14.00;;;8.52;;
75537;SDS011;64121;48.666;8.114;2022-12-07T03:41:14;13.50;;;8.40;;
75537;SDS011;64121;48.666;8.114;2022-12-07T03:43:43;12.95;;;8.52;;
75537;SDS011;64121;48.666;8.114;2022-12-07T03:46:11;13.45;;;8.35;;
75537;SDS011;64121;48.666;8.114;2022-12-07T03:48:46;15.40;;;8.65;;
75537;SDS011;64121;48.666;8.114;2022-12-07T03:51:20;14.95;;;9.32;;
75537;SDS011;64121;48.666;8.114;2022-12-07T03:53:51;13.23;;;9.07;;
75537;SDS011;64121;48.666;8.114;2022-12-07T03:56:20;14.00;;;9.80;;
75537;SDS011;64121;48.666;8.114;2022-12-07T03:58:46;12.32;;;8.00;;
75537;SDS011;64121;48.666;8.114;2022-12-07T04:01:13;12.82;;;8.95;;
75537;SDS011;64121;48.666;8.114;2022-12-07T04:03:40;13.68;;;8.63;;
75537;SDS011;64121;48.666;8.114;2022-12-07T04:06:05;17.25;;;9.57;;
75537;SDS011;64121;48.666;8.114;2022-12-07T04:08:30;15.65;;;8.80;;
75537;SDS011;64121;48.666;8.114;2022-12-07T04:10:56;13.80;;;8.75;;
75537;SDS011;64121;48.666;8.114;2022-12-07T04:13:21;13.95;;;8.80;;
75537;SDS011;64121;48.666;8.114;2022-12-07T04:15:46;13.65;;;9.18;;
75537;SDS011;64121;48.666;8.114;2022-12-07T04:18:12;14.95;;;8.75;;
75537;SDS011;64121;48.666;8.114;2022-12-07T04:20:38;15.07;;;8.50;;
75537;SDS011;64121;48.666;8.114;2022-12-07T04:23:04;14.10;;;8.25;;
75537;SDS011;64121;48.666;8.114;2022-12-07T04:25:29;16.25;;;9.50;;
75537;SDS011;64121;48.666;8.114;2022-12-07T04:27:54;13.88;;;8.82;;
75537;SDS011;64121;48.666;8.114;2022-12-07T04:30:20;15.02;;;8.95;;
75537;SDS011;64121;48.666;8.114;2022-12-07T04:32:45;15.32;;;9.52;;
75537;SDS011;64121;48.666;8.114;2022-12-07T04:35:10;16.33;;;9.35;;
75537;SDS011;64121;48.666;8.114;2022-12-07T04:37:37;12.40;;;8.27;;
75537;SDS011;64121;48.666;8.114;2022-12-07T04:40:03;15.80;;;9.50;;
75537;SDS011;64121;48.666;8.114;2022-12-07T04:42:29;13.98;;;8.35;;
75537;SDS011;64121;48.666;8.114;2022-12-07T04:44:54;14.38;;;8.23;;
75537;SDS011;64121;48.666;8.114;2022-12-07T04:47:20;15.02;;;7.97;;
75537;SDS011;64121;48.666;8.114;2022-12-07T04:49:45;13.52;;;8.73;;
75537;SDS011;64121;48.666;8.114;2022-12-07T04:52:10;14.68;;;9.52;;
75537;SDS011;64121;48.666;8.114;2022-12-07T04:54:37;13.02;;;8.55;;
75537;SDS011;64121;48.666;8.114;2022-12-07T04:57:03;15.82;;;8.70;;
75537;SDS011;64121;48.666;8.114;2022-12-07T04:59:28;15.13;;;9.40;;
75537;SDS011;64121;48.666;8.114;2022-12-07T05:01:53;13.05;;;8.15;;
75537;SDS011;64121;48.666;8.114;2022-12-07T05:04:19;11.43;;;7.93;;
75537;SDS011;64121;48.666;8.114;2022-12-07T05:06:44;10.65;;;7.40;;
75537;SDS011;64121;48.666;8.114;2022-12-07T05:09:09;12.45;;;7.93;;
75537;SDS011;64121;48.666;8.114;2022-12-07T05:11:36;12.32;;;7.70;;
75537;SDS011;64121;48.666;8.114;2022-12-07T05:14:02;15.15;;;8.20;;
75537;SDS011;64121;48.666;8.114;2022-12-07T05:16:28;13.75;;;7.53;;
75537;SDS011;64121;48.666;8.114;2022-12-07T05:18:53;13.93;;;8.55;;
75537;SDS011;64121;48.666;8.114;2022-12-07T05:21:19;13.05;;;7.80;;
75537;SDS011;64121;48.666;8.114;2022-12-07T05:23:44;13.48;;;8.30;;
75537;SDS011;64121;48.666;8.114;2022-12-07T05:26:09;14.88;;;8.82;;
75537;SDS011;64121;48.666;8.114;2022-12-07T05:28:36;12.90;;;8.20;;
75537;SDS011;64121;48.666;8.114;2022-12-07T05:31:02;13.13;;;9.45;;
75537;SDS011;64121;48.666;8.114;2022-12-07T05:33:27;15.25;;;8.32;;
75537;SDS011;64121;48.666;8.114;2022-12-07T05:35:52;12.10;;;7.75;;
75537;SDS011;64121;48.666;8.114;2022-12-07T05:38:18;11.50;;;8.10;;
75537;SDS011;64121;48.666;8.114;2022-12-07T05:40:43;12.23;;;7.25;;
75537;SDS011;64121;48.666;8.114;2022-12-07T05:43:08;12.77;;;7.20;;
75537;SDS011;64121;48.666;8.114;2022-12-07T05:45:35;9.90;;;6.05;;
75537;SDS011;64121;48.666;8.114;2022-12-07T05:48:01;9.63;;;5.93;;
75537;SDS011;64121;48.666;8.114;2022-12-07T05:50:26;9.27;;;6.60;;
75537;SDS011;64121;48.666;8.114;2022-12-07T05:52:51;10.73;;;6.35;;
75537;SDS011;64121;48.666;8.114;2022-12-07T05:55:17;11.73;;;7.30;;
75537;SDS011;64121;48.666;8.114;2022-12-07T05:57:42;9.88;;;6.72;;
75537;SDS011;64121;48.666;8.114;2022-12-07T06:00:08;9.32;;;6.13;;
75537;SDS011;64121;48.666;8.114;2022-12-07T06:02:35;9.95;;;6.07;;
75537;SDS011;64121;48.666;8.114;2022-12-07T06:05:00;10.38;;;5.80;;
75537;SDS011;64121;48.666;8.114;2022-12-07T06:07:26;11.32;;;6.55;;
75537;SDS011;64121;48.666;8.114;2022-12-07T06:09:51;8.88;;;5.88;;
75537;SDS011;64121;48.666;8.114;2022-12-07T06:12:16;8.95;;;6.70;;
75537;SDS011;64121;48.666;8.114;2022-12-07T06:14:42;9.40;;;6.60;;
75537;SDS011;64121;48.666;8.114;2022-12-07T06:17:07;11.05;;;6.63;;
75537;SDS011;64121;48.666;8.114;2022-12-07T06:19:34;13.00;;;6.90;;
75537;SDS011;64121;48.666;8.114;2022-12-07T06:22:00;10.93;;;6.82;;
75537;SDS011;64121;48.666;8.114;2022-12-07T06:24:25;10.52;;;7.00;;
75537;SDS011;64121;48.666;8.114;2022-12-07T06:26:51;13.68;;;7.90;;
75537;SDS011;64121;48.666;8.114;2022-12-07T06:29:16;12.95;;;7.20;;
75537;SDS011;64121;48.666;8.114;2022-12-07T06:31:42;12.02;;;6.85;;
75537;SDS011;64121;48.666;8.114;2022-12-07T06:34:09;12.23;;;6.75;;
75537;SDS011;64121;48.666;8.114;2022-12-07T06:36:36;13.20;;;6.47;;
75537;SDS011;64121;48.666;8.114;2022-12-07T06:39:02;11.38;;;6.65;;
75537;SDS011;64121;48.666;8.114;2022-12-07T06:41:28;12.38;;;6.88;;
75537;SDS011;64121;48.666;8.114;2022-12-07T06:43:54;12.95;;;7.50;;
75537;SDS011;64121;48.666;8.114;2022-12-07T06:46:19;14.95;;;8.50;;
75537;SDS011;64121;48.666;8.114;2022-12-07T06:48:45;12.63;;;8.07;;
75537;SDS011;64121;48.666;8.114;2022-12-07T06:51:10;11.80;;;6.72;;
75537;SDS011;64121;48.666;8.114;2022-12-07T06:53:37;9.38;;;6.80;;
75537;SDS011;64121;48.666;8.114;2022-12-07T06:56:03;8.98;;;5.97;;
75537;SDS011;64121;48.666;8.114;2022-12-07T06:58:28;11.27;;;6.03;;
75537;SDS011;64121;48.666;8.114;2022-12-07T07:00:54;9.93;;;5.53;;
75537;SDS011;64121;48.666;8.114;2022-12-07T07:03:19;9.13;;;5.45;;
75537;SDS011;64121;48.666;8.114;2022-12-07T07:05:44;8.70;;;5.53;;
75537;SDS011;64121;48.666;8.114;2022-12-07T07:08:10;10.95;;;6.22;;
75537;SDS011;64121;48.666;8.114;2022-12-07T07:10:37;9.25;;;7.18;;
75537;SDS011;64121;48.666;8.114;2022-12-07T07:13:03;13.45;;;8.23;;
75537;SDS011;64121;48.666;8.114;2022-12-07T07:15:29;15.52;;;8.77;;
75537;SDS011;64121;48.666;8.114;2022-12-07T07:17:54;12.23;;;6.93;;
75537;SDS011;64121;48.666;8.114;2022-12-07T07:20:20;12.10;;;8.10;;
75537;SDS011;64121;48.666;8.114;2022-12-07T07:22:45;10.82;;;7.80;;
75537;SDS011;64121;48.666;8.114;2022-12-07T07:25:10;11.80;;;6.85;;
75537;SDS011;64121;48.666;8.114;2022-12-07T07:27:37;7.43;;;5.18;;
75537;SDS011;64121;48.666;8.114;2022-12-07T07:30:03;8.23;;;5.20;;
75537;SDS011;64121;48.666;8.114;2022-12-07T07:32:29;10.00;;;5.13;;
75537;SDS011;64121;48.666;8.114;2022-12-07T07:34:54;8.82;;;5.63;;
75537;SDS011;64121;48.666;8.114;2022-12-07T07:37:20;8.95;;;5.97;;
75537;SDS011;64121;48.666;8.114;2022-12-07T07:39:45;7.95;;;5.07;;
75537;SDS011;64121;48.666;8.114;2022-12-07T07:42:10;7.63;;;5.18;;
75537;SDS011;64121;48.666;8.114;2022-12-07T07:44:37;11.13;;;5.90;;
75537;SDS011;64121;48.666;8.114;2022-12-07T07:47:02;7.85;;;4.75;;
75537;SDS011;64121;48.666;8.114;2022-12-07T07:49:28;6.72;;;4.93;;
75537;SDS011;64121;48.666;8.114;2022-12-07T07:51:53;7.93;;;5.25;;
75537;SDS011;64121;48.666;8.114;2022-12-07T07:54:19;7.65;;;5.07;;
75537;SDS011;64121;48.666;8.114;2022-12-07T07:56:44;8.05;;;4.57;;
75537;SDS011;64121;48.666;8.114;2022-12-07T07:59:09;11.10;;;6.40;;
75537;SDS011;64121;48.666;8.114;2022-12-07T08:01:36;9.23;;;5.88;;
75537;SDS011;64121;48.666;8.114;2022-12-07T08:04:01;9.65;;;5.20;;
75537;SDS011;64121;48.666;8.114;2022-12-07T08:06:27;8.73;;;5.75;;
75537;SDS011;64121;48.666;8.114;2022-12-07T08:08:52;8.38;;;5.70;;
75537;SDS011;64121;48.666;8.114;2022-12-07T08:11:18;8.40;;;5.38;;
75537;SDS011;64121;48.666;8.114;2022-12-07T08:13:44;9.07;;;5.50;;
75537;SDS011;64121;48.666;8.114;2022-12-07T08:16:10;7.43;;;5.25;;
75537;SDS011;64121;48.666;8.114;2022-12-07T08:18:38;7.93;;;5.80;;
75537;SDS011;64121;48.666;8.114;2022-12-07T08:21:05;8.38;;;5.50;;
75537;SDS011;64121;48.666;8.114;2022-12-07T08:23:31;9.48;;;5.30;;
75537;SDS011;64121;48.666;8.114;2022-12-07T08:25:59;8.52;;;5.28;;
75537;SDS011;64121;48.666;8.114;2022-12-07T08:28:25;9.75;;;5.22;;
75537;SDS011;64121;48.666;8.114;2022-12-07T08:30:50;8.32;;;5.10;;
75537;SDS011;64121;48.666;8.114;2022-12-07T08:33:15;8.57;;;5.18;;
75537;SDS011;64121;48.666;8.114;2022-12-07T08:35:42;7.97;;;5.03;;
75537;SDS011;64121;48.666;8.114;2022-12-07T08:38:07;7.18;;;4.65;;
75537;SDS011;64121;48.666;8.114;2022-12-07T08:40:33;7.80;;;5.03;;
75537;SDS011;64121;48.666;8.114;2022-12-07T08:42:58;8.35;;;5.10;;
75537;SDS011;64121;48.666;8.114;2022-12-07T08:45:23;6.75;;;4.95;;
75537;SDS011;64121;48.666;8.114;2022-12-07T08:47:49;7.72;;;4.72;;
75537;SDS011;64121;48.666;8.114;2022-12-07T08:50:19;7.22;;;4.32;;
75537;SDS011;64121;48.666;8.114;2022-12-07T08:52:46;7.82;;;4.93;;
75537;SDS011;64121;48.666;8.114;2022-12-07T08:55:14;8.05;;;5.20;;
75537;SDS011;64121;48.666;8.114;2022-12-07T08:57:39;7.10;;;4.63;;
75537;SDS011;64121;48.666;8.114;2022-12-07T09:00:05;8.15;;;4.35;;
75537;SDS011;64121;48.666;8.114;2022-12-07T09:02:31;8.23;;;4.95;;
75537;SDS011;64121;48.666;8.114;2022-12-07T09:04:57;8.70;;;4.47;;
75537;SDS011;64121;48.666;8.114;2022-12-07T09:07:22;8.65;;;3.97;;
75537;SDS011;64121;48.666;8.114;2022-12-07T09:09:50;9.52;;;5.15;;
75537;SDS011;64121;48.666;8.114;2022-12-07T09:12:15;7.07;;;4.60;;
75537;SDS011;64121;48.666;8.114;2022-12-07T09:14:40;10.80;;;5.82;;
75537;SDS011;64121;48.666;8.114;2022-12-07T09:17:06;8.52;;;5.20;;
75537;SDS011;64121;48.666;8.114;2022-12-07T09:19:32;6.70;;;4.03;;
75537;SDS011;64121;48.666;8.114;2022-12-07T09:21:57;8.27;;;4.05;;
75537;SDS011;64121;48.666;8.114;2022-12-07T09:24:23;6.05;;;3.72;;
75537;SDS011;64121;48.666;8.114;2022-12-07T09:26:49;5.68;;;3.78;;
75537;SDS011;64121;48.666;8.114;2022-12-07T09:29:15;7.15;;;3.95;;
75537;SDS011;64121;48.666;8.114;2022-12-07T09:31:40;7.90;;;4.38;;
75537;SDS011;64121;48.666;8.114;2022-12-07T09:34:05;7.28;;;4.03;;
75537;SDS011;64121;48.666;8.114;2022-12-07T09:36:31;6.80;;;4.25;;
75537;SDS011;64121;48.666;8.114;2022-12-07T09:38:56;6.65;;;4.18;;
75537;SDS011;64121;48.666;8.114;2022-12-07T09:41:22;7.22;;;3.90;;
75537;SDS011;64121;48.666;8.114;2022-12-07T09:43:51;6.78;;;3.83;;
75537;SDS011;64121;48.666;8.114;2022-12-07T09:46:18;7.43;;;3.92;;
75537;SDS011;64121;48.666;8.114;2022-12-07T09:48:45;9.63;;;4.97;;
75537;SDS011;64121;48.666;8.114;2022-12-07T09:51:14;6.85;;;5.07;;
75537;SDS011;64121;48.666;8.114;2022-12-07T09:53:41;7.05;;;4.32;;
75537;SDS011;64121;48.666;8.114;2022-12-07T09:56:08;5.97;;;3.80;;
75537;SDS011;64121;48.666;8.114;2022-12-07T09:58:37;6.72;;;3.50;;
75537;SDS011;64121;48.666;8.114;2022-12-07T10:01:09;5.22;;;3.28;;
75537;SDS011;64121;48.666;8.114;2022-12-07T10:03:37;5.88;;;3.63;;
75537;SDS011;64121;48.666;8.114;2022-12-07T10:06:04;7.75;;;4.22;;
75537;SDS011;64121;48.666;8.114;2022-12-07T10:08:31;7.47;;;4.43;;
75537;SDS011;64121;48.666;8.114;2022-12-07T10:10:57;5.95;;;4.05;;
75537;SDS011;64121;48.666;8.114;2022-12-07T10:13:33;7.05;;;3.90;;
75537;SDS011;64121;48.666;8.114;2022-12-07T10:16:00;9.15;;;4.53;;
75537;SDS011;64121;48.666;8.114;2022-12-07T10:18:28;6.15;;;3.95;;
75537;SDS011;64121;48.666;8.114;2022-12-07T10:23:58;8.57;;;5.35;;
75537;SDS011;64121;48.666;8.114;2022-12-07T10:26:26;8.48;;;4.65;;
75537;SDS011;64121;48.666;8.114;2022-12-07T10:28:54;7.88;;;4.85;;
75537;SDS011;64121;48.666;8.114;2022-12-07T10:31:21;10.98;;;5.97;;
75537;SDS011;64121;48.666;8.114;2022-12-07T10:33:52;10.48;;;6.60;;
75537;SDS011;64121;48.666;8.114;2022-12-07T10:36:20;9.75;;;5.57;;
75537;SDS011;64121;48.666;8.114;2022-12-07T10:38:48;8.65;;;5.65;;
75537;SDS011;64121;48.666;8.114;2022-12-07T10:41:15;8.73;;;5.35;;
75537;SDS011;64121;48.666;8.114;2022-12-07T10:43:46;9.75;;;5.85;;
75537;SDS011;64121;48.666;8.114;2022-12-07T10:46:21;10.30;;;6.45;;
75537;SDS011;64121;48.666;8.114;2022-12-07T10:48:59;7.28;;;4.57;;
75537;SDS011;64121;48.666;8.114;2022-12-07T10:51:37;7.68;;;5.05;;
75537;SDS011;64121;48.666;8.114;2022-12-07T10:54:10;6.88;;;4.13;;
75537;SDS011;64121;48.666;8.114;2022-12-07T10:56:52;6.15;;;4.28;;
75537;SDS011;64121;48.666;8.114;2022-12-07T11:02:25;7.15;;;4.60;;
75537;SDS011;64121;48.666;8.114;2022-12-07T11:05:04;8.07;;;4.90;;
75537;SDS011;64121;48.666;8.114;2022-12-07T11:07:42;8.45;;;4.82;;
75537;SDS011;64121;48.666;8.114;2022-12-07T11:10:12;7.78;;;4.68;;
75537;SDS011;64121;48.666;8.114;2022-12-07T11:12:49;7.63;;;4.40;;
75537;SDS011;64121;48.666;8.114;2022-12-07T11:15:29;9.05;;;4.20;;
75537;SDS011;64121;48.666;8.114;2022-12-07T11:18:06;9.18;;;4.13;;
75537;SDS011;64121;48.666;8.114;2022-12-07T11:20:39;7.07;;;4.40;;
75537;SDS011;64121;48.666;8.114;2022-12-07T11:23:13;6.22;;;3.70;;
75537;SDS011;64121;48.666;8.114;2022-12-07T11:25:48;8.60;;;5.07;;
75537;SDS011;64121;48.666;8.114;2022-12-07T11:30:53;5.82;;;3.85;;
75537;SDS011;64121;48.666;8.114;2022-12-07T11:33:25;9.07;;;4.82;;
75537;SDS011;64121;48.666;8.114;2022-12-07T11:36:00;7.38;;;4.10;;
75537;SDS011;64121;48.666;8.114;2022-12-07T11:38:32;6.50;;;4.25;;
75537;SDS011;64121;48.666;8.114;2022-12-07T11:41:04;7.82;;;4.25;;
75537;SDS011;64121;48.666;8.114;2022-12-07T11:43:31;6.35;;;4.05;;
75537;SDS011;64121;48.666;8.114;2022-12-07T11:46:00;6.05;;;4.20;;
75537;SDS011;64121;48.666;8.114;2022-12-07T11:48:31;8.07;;;4.82;;
75537;SDS011;64121;48.666;8.114;2022-12-07T11:51:01;8.57;;;4.22;;
75537;SDS011;64121;48.666;8.114;2022-12-07T11:53:29;9.45;;;5.20;;
75537;SDS011;64121;48.666;8.114;2022-12-07T11:56:00;11.23;;;6.60;;
75537;SDS011;64121;48.666;8.114;2022-12-07T11:58:42;12.13;;;6.20;;
75537;SDS011;64121;48.666;8.114;2022-12-07T12:01:14;8.43;;;4.75;;
75537;SDS011;64121;48.666;8.114;2022-12-07T12:03:52;6.72;;;3.97;;
75537;SDS011;64121;48.666;8.114;2022-12-07T12:06:22;6.72;;;3.42;;
75537;SDS011;64121;48.666;8.114;2022-12-07T12:08:48;8.05;;;4.05;;
75537;SDS011;64121;48.666;8.114;2022-12-07T12:11:22;5.85;;;3.90;;
75537;SDS011;64121;48.666;8.114;2022-12-07T12:14:02;6.57;;;3.78;;
75537;SDS011;64121;48.666;8.114;2022-12-07T12:17:01;7.25;;;4.20;;
75537;SDS011;64121;48.666;8.114;2022-12-07T12:19:45;6.90;;;4.43;;
75537;SDS011;64121;48.666;8.114;2022-12-07T12:22:27;6.85;;;4.05;;
75537;SDS011;64121;48.666;8.114;2022-12-07T12:24:58;8.23;;;4.15;;
75537;SDS011;64121;48.666;8.114;2022-12-07T12:27:25;7.47;;;4.20;;
75537;SDS011;64121;48.666;8.114;2022-12-07T12:29:53;7.88;;;4.43;;
75537;SDS011;64121;48.666;8.114;2022-12-07T12:32:20;6.45;;;4.05;;
75537;SDS011;64121;48.666;8.114;2022-12-07T12:34:57;7.85;;;4.18;;
75537;SDS011;64121;48.666;8.114;2022-12-07T12:37:45;5.88;;;3.67;;
75537;SDS011;64121;48.666;8.114;2022-12-07T12:51:58;8.43;;;5.10;;
75537;SDS011;64121;48.666;8.114;2022-12-07T12:54:26;8.48;;;4.15;;
75537;SDS011;64121;48.666;8.114;2022-12-07T12:56:55;6.20;;;3.90;;
75537;SDS011;64121;48.666;8.114;2022-12-07T12:59:26;9.20;;;4.45;;
75537;SDS011;64121;48.666;8.114;2022-12-07T13:01:54;6.88;;;4.00;;
75537;SDS011;64121;48.666;8.114;2022-12-07T13:04:26;7.65;;;4.10;;
75537;SDS011;64121;48.666;8.114;2022-12-07T13:07:03;9.63;;;4.80;;
75537;SDS011;64121;48.666;8.114;2022-12-07T13:09:30;8.10;;;5.95;;
75537;SDS011;64121;48.666;8.114;2022-12-07T13:12:00;7.85;;;5.75;;
75537;SDS011;64121;48.666;8.114;2022-12-07T13:14:41;8.40;;;6.50;;
75537;SDS011;64121;48.666;8.114;2022-12-07T13:20:19;7.75;;;4.65;;
75537;SDS011;64121;48.666;8.114;2022-12-07T13:23:09;8.77;;;5.50;;
75537;SDS011;64121;48.666;8.114;2022-12-07T13:25:44;9.23;;;5.80;;
75537;SDS011;64121;48.666;8.114;2022-12-07T13:28:16;8.38;;;5.55;;
75537;SDS011;64121;48.666;8.114;2022-12-07T13:30:45;10.90;;;6.57;;
75537;SDS011;64121;48.666;8.114;2022-12-07T13:33:18;9.63;;;6.60;;
75537;SDS011;64121;48.666;8.114;2022-12-07T13:35:43;8.38;;;6.20;;
75537;SDS011;64121;48.666;8.114;2022-12-07T13:38:16;11.35;;;6.90;;
75537;SDS011;64121;48.666;8.114;2022-12-07T13:41:00;10.65;;;6.15;;
75537;SDS011;64121;48.666;8.114;2022-12-07T13:43:26;10.35;;;7.05;;
75537;SDS011;64121;48.666;8.114;2022-12-07T13:45:55;13.27;;;7.40;;
75537;SDS011;64121;48.666;8.114;2022-12-07T13:48:26;11.40;;;7.30;;
75537;SDS011;64121;48.666;8.114;2022-12-07T13:50:55;11.05;;;6.80;;
75537;SDS011;64121;48.666;8.114;2022-12-07T13:53:22;11.77;;;6.60;;
75537;SDS011;64121;48.666;8.114;2022-12-07T13:55:48;9.73;;;6.45;;
75537;SDS011;64121;48.666;8.114;2022-12-07T13:58:15;11.63;;;6.43;;
75537;SDS011;64121;48.666;8.114;2022-12-07T14:00:41;10.18;;;6.85;;
75537;SDS011;64121;48.666;8.114;2022-12-07T14:03:23;12.90;;;7.55;;
75537;SDS011;64121;48.666;8.114;2022-12-07T14:06:03;11.35;;;6.72;;
75537;SDS011;64121;48.666;8.114;2022-12-07T14:08:31;9.73;;;6.30;;
75537;SDS011;64121;48.666;8.114;2022-12-07T14:10:56;10.13;;;6.55;;
75537;SDS011;64121;48.666;8.114;2022-12-07T14:13:27;10.70;;;6.50;;
75537;SDS011;64121;48.666;8.114;2022-12-07T14:15:55;10.00;;;6.28;;
75537;SDS011;64121;48.666;8.114;2022-12-07T14:18:25;10.35;;;6.63;;
75537;SDS011;64121;48.666;8.114;2022-12-07T14:20:52;10.65;;;6.45;;
75537;SDS011;64121;48.666;8.114;2022-12-07T14:23:28;10.40;;;6.15;;
75537;SDS011;64121;48.666;8.114;2022-12-07T14:25:53;11.10;;;6.70;;
75537;SDS011;64121;48.666;8.114;2022-12-07T14:28:30;10.00;;;6.25;;
75537;SDS011;64121;48.666;8.114;2022-12-07T14:30:56;11.60;;;6.43;;
75537;SDS011;64121;48.666;8.114;2022-12-07T14:33:22;11.90;;;7.05;;
75537;SDS011;64121;48.666;8.114;2022-12-07T14:35:48;10.82;;;6.40;;
75537;SDS011;64121;48.666;8.114;2022-12-07T14:38:14;11.63;;;6.45;;
75537;SDS011;64121;48.666;8.114;2022-12-07T14:40:39;11.32;;;6.68;;
75537;SDS011;64121;48.666;8.114;2022-12-07T14:43:05;10.95;;;6.25;;
75537;SDS011;64121;48.666;8.114;2022-12-07T14:45:37;10.65;;;6.35;;
75537;SDS011;64121;48.666;8.114;2022-12-07T14:48:03;10.20;;;6.60;;
75537;SDS011;64121;48.666;8.114;2022-12-07T14:50:29;12.95;;;6.63;;
75537;SDS011;64121;48.666;8.114;2022-12-07T14:52:55;9.40;;;6.68;;
75537;SDS011;64121;48.666;8.114;2022-12-07T14:55:24;11.63;;;6.35;;
75537;SDS011;64121;48.666;8.114;2022-12-07T14:57:50;12.60;;;6.80;;
75537;SDS011;64121;48.666;8.114;2022-12-07T15:00:17;11.55;;;7.18;;
75537;SDS011;64121;48.666;8.114;2022-12-07T15:02:46;11.30;;;6.43;;
75537;SDS011;64121;48.666;8.114;2022-12-07T15:05:12;12.50;;;7.32;;
75537;SDS011;64121;48.666;8.114;2022-12-07T15:07:38;11.82;;;6.50;;
75537;SDS011;64121;48.666;8.114;2022-12-07T15:10:04;11.82;;;7.10;;